Williston, North Dakota
Current Conditions -  °F | °C
As of 3:52 AM on Thursday 23 Oct 2014 (Local Time) from KISN Reporting Station
Clear Clear  
Wind Chill:   Ceiling: Unl
Heat Index:   Visibility: 10mi
Dew Point:   Wind: 5mph
Humidity: 79%   Direction: 210°SSW
Pressure: 29.87"   Gusts: NA
Location:  48.15°N, 103.62°W
Report Text: KISN 230852Z AUTO 21004KT 10SM CLR 03/00 A2987 RMK AO2 SLP122 T00330000 53002
Loading
Personal Weather Stations






























Interactive Weather Map
Tropical Storm Tracking
New forecast layout! Learn more

10-Day Weather Forecast

Advertisements
Track Severe Weather on mobile